BAW2718 EGKK-LPMA
Flight info
| Callsign | BAW2718 |
|---|---|
| Flight time | N/A |
| Altitude | 33000 |
| Route | NOVMA L620 SAM M195 LORKU DCT EBOMO DCT COQUE DCT KORUL DCT AGADO DCT LAMDI/N0447F350 DCT VABEM DCT LIDRO |
| Aircraft | B738/M-SDE2E3FGHIRWXY/LB1 |
Departure
| Time | 2026-04-14 15:59 |
|---|---|
| Airport | London Gatwick Airport (EGKK) |
Arrival
| Time | N/A |
|---|---|
| Airport | Cristiano Ronaldo International Airport (LPMA) |
| Time | Latitude | Longitude | Altitude | Speed | Heading |
|---|---|---|---|---|---|
| 2026-04-14 15:13 | 51.15650 | -0.17789 | 199 ft | 0 kts | 168° |
| 2026-04-14 15:41 | 51.15649 | -0.17789 | 198 ft | 0 kts | 168° |
| 2026-04-14 15:42 | 51.15665 | -0.17794 | 198 ft | 4 kts | 168° |
| 2026-04-14 15:42 | 51.15681 | -0.17803 | 198 ft | 2 kts | 153° |
| 2026-04-14 15:42 | 51.15691 | -0.17812 | 198 ft | 0 kts | 152° |
| 2026-04-14 15:42 | 51.15691 | -0.17811 | 198 ft | 0 kts | 149° |
| 2026-04-14 15:43 | 51.15696 | -0.17816 | 198 ft | 4 kts | 161° |
| 2026-04-14 15:43 | 51.15710 | -0.17828 | 198 ft | 2 kts | 134° |
| 2026-04-14 15:43 | 51.15716 | -0.17848 | 198 ft | 4 kts | 94° |
| 2026-04-14 15:43 | 51.15716 | -0.17852 | 198 ft | 0 kts | 103° |
| 2026-04-14 15:44 | 51.15716 | -0.17840 | 198 ft | 0 kts | 82° |
| 2026-04-14 15:46 | 51.15720 | -0.17799 | 198 ft | 7 kts | 79° |
| 2026-04-14 15:47 | 51.15732 | -0.17707 | 198 ft | 8 kts | 78° |
| 2026-04-14 15:47 | 51.15745 | -0.17610 | 198 ft | 9 kts | 78° |
| 2026-04-14 15:47 | 51.15731 | -0.17513 | 198 ft | 10 kts | 146° |
| 2026-04-14 15:47 | 51.15664 | -0.17480 | 198 ft | 9 kts | 167° |
| 2026-04-14 15:48 | 51.15601 | -0.17459 | 198 ft | 8 kts | 168° |
| 2026-04-14 15:48 | 51.15538 | -0.17437 | 198 ft | 10 kts | 168° |
| 2026-04-14 15:48 | 51.15457 | -0.17408 | 198 ft | 12 kts | 168° |
| 2026-04-14 15:48 | 51.15432 | -0.17400 | 198 ft | 2 kts | 168° |
| 2026-04-14 15:49 | 51.15419 | -0.17395 | 198 ft | 1 kts | 168° |
| 2026-04-14 15:49 | 51.15411 | -0.17393 | 198 ft | 2 kts | 168° |
| 2026-04-14 15:50 | 51.15409 | -0.17392 | 198 ft | 1 kts | 168° |
| 2026-04-14 15:50 | 51.15381 | -0.17383 | 198 ft | 7 kts | 168° |
| 2026-04-14 15:50 | 51.15324 | -0.17363 | 198 ft | 10 kts | 168° |
| 2026-04-14 15:51 | 51.15281 | -0.17348 | 198 ft | 11 kts | 168° |
| 2026-04-14 15:51 | 51.15237 | -0.17314 | 198 ft | 11 kts | 143° |
| 2026-04-14 15:51 | 51.15184 | -0.17235 | 198 ft | 8 kts | 114° |
| 2026-04-14 15:51 | 51.15186 | -0.17148 | 198 ft | 8 kts | 78° |
| 2026-04-14 15:52 | 51.15199 | -0.17053 | 198 ft | 9 kts | 77° |
| 2026-04-14 15:52 | 51.15212 | -0.16951 | 198 ft | 1 kts | 78° |
| 2026-04-14 15:52 | 51.15213 | -0.16943 | 198 ft | 1 kts | 78° |
| 2026-04-14 15:52 | 51.15216 | -0.16927 | 198 ft | 0 kts | 78° |
| 2026-04-14 15:53 | 51.15216 | -0.16922 | 198 ft | 0 kts | 78° |
| 2026-04-14 15:58 | 51.15219 | -0.16904 | 198 ft | 4 kts | 78° |
| 2026-04-14 15:58 | 51.15204 | -0.16817 | 198 ft | 11 kts | 135° |
| 2026-04-14 15:58 | 51.15128 | -0.16814 | 198 ft | 12 kts | 220° |
| 2026-04-14 15:58 | 51.15094 | -0.16992 | 198 ft | 38 kts | 257° |
| 2026-04-14 15:59 | 51.14982 | -0.17799 | 198 ft | 108 kts | 258° |
| 2026-04-14 15:59 | 51.14779 | -0.19279 | 203 ft | 163 kts | 258° |
| 2026-04-14 15:59 | 51.14540 | -0.21112 | 635 ft | 176 kts | 259° |
| 2026-04-14 15:59 | 51.14306 | -0.23042 | 1166 ft | 179 kts | 258° |
| 2026-04-14 16:00 | 51.14062 | -0.24964 | 1707 ft | 184 kts | 259° |
| 2026-04-14 16:00 | 51.13806 | -0.27009 | 2266 ft | 192 kts | 259° |
| 2026-04-14 16:00 | 51.13544 | -0.29099 | 2811 ft | 198 kts | 259° |
| 2026-04-14 16:00 | 51.13271 | -0.31270 | 3361 ft | 203 kts | 259° |
| 2026-04-14 16:01 | 51.12999 | -0.33442 | 3880 ft | 207 kts | 259° |
| 2026-04-14 16:01 | 51.12708 | -0.35746 | 4000 ft | 226 kts | 259° |
| 2026-04-14 16:01 | 51.12402 | -0.38150 | 4398 ft | 229 kts | 258° |
| 2026-04-14 16:01 | 51.12046 | -0.40613 | 4923 ft | 236 kts | 257° |
| 2026-04-14 16:02 | 51.11621 | -0.43144 | 5446 ft | 241 kts | 248° |
| 2026-04-14 16:02 | 51.10896 | -0.45512 | 5969 ft | 245 kts | 242° |
| 2026-04-14 16:02 | 51.10123 | -0.47866 | 6485 ft | 247 kts | 243° |
| 2026-04-14 16:02 | 51.09360 | -0.50229 | 6937 ft | 254 kts | 243° |
| 2026-04-14 16:03 | 51.08546 | -0.52750 | 7004 ft | 258 kts | 243° |
| 2026-04-14 16:03 | 51.07730 | -0.55280 | 6996 ft | 255 kts | 243° |
| 2026-04-14 16:03 | 51.06968 | -0.57637 | 6999 ft | 254 kts | 243° |
| 2026-04-14 16:03 | 51.06210 | -0.59981 | 7001 ft | 254 kts | 243° |
| 2026-04-14 16:04 | 51.05507 | -0.62232 | 6999 ft | 254 kts | 248° |
| 2026-04-14 16:04 | 51.05059 | -0.64619 | 7002 ft | 254 kts | 257° |
| 2026-04-14 16:04 | 51.04228 | -0.70351 | 7000 ft | 254 kts | 256° |
| 2026-04-14 16:05 | 51.03830 | -0.73036 | 6999 ft | 254 kts | 256° |
| 2026-04-14 16:05 | 51.03434 | -0.75738 | 6999 ft | 254 kts | 257° |
| 2026-04-14 16:05 | 51.03085 | -0.78376 | 6999 ft | 254 kts | 258° |
| 2026-04-14 16:05 | 51.02724 | -0.81114 | 6999 ft | 254 kts | 258° |
| 2026-04-14 16:06 | 51.02365 | -0.83819 | 6999 ft | 254 kts | 258° |
| 2026-04-14 16:06 | 51.02000 | -0.86577 | 6999 ft | 254 kts | 258° |
| 2026-04-14 16:06 | 51.01640 | -0.89286 | 6999 ft | 254 kts | 258° |
| 2026-04-14 16:06 | 51.01279 | -0.91990 | 7250 ft | 253 kts | 258° |
| 2026-04-14 16:07 | 51.00920 | -0.94682 | 7824 ft | 256 kts | 258° |
| 2026-04-14 16:07 | 51.00628 | -0.96864 | 8058 ft | 268 kts | 258° |
| 2026-04-14 16:07 | 51.00244 | -0.99734 | 8635 ft | 270 kts | 258° |
| 2026-04-14 16:07 | 50.99892 | -1.02356 | 9093 ft | 274 kts | 258° |
| 2026-04-14 16:08 | 50.99659 | -1.04086 | 9409 ft | 276 kts | 258° |
| 2026-04-14 16:08 | 50.99258 | -1.07065 | 9944 ft | 280 kts | 258° |
| 2026-04-14 16:08 | 50.98848 | -1.10107 | 10415 ft | 288 kts | 258° |
| 2026-04-14 16:08 | 50.98437 | -1.13147 | 11107 ft | 289 kts | 258° |
| 2026-04-14 16:09 | 50.98007 | -1.16318 | 11662 ft | 294 kts | 258° |
| 2026-04-14 16:09 | 50.97586 | -1.19417 | 12264 ft | 296 kts | 258° |
| 2026-04-14 16:09 | 50.97150 | -1.22628 | 12833 ft | 299 kts | 258° |
| 2026-04-14 16:09 | 50.96718 | -1.25791 | 13392 ft | 301 kts | 258° |
| 2026-04-14 16:10 | 50.96278 | -1.29010 | 13934 ft | 304 kts | 258° |
| 2026-04-14 16:10 | 50.95821 | -1.31884 | 14400 ft | 306 kts | 250° |
| 2026-04-14 16:10 | 50.95116 | -1.34129 | 14756 ft | 309 kts | 234° |
| 2026-04-14 16:11 | 50.90855 | -1.39313 | 16053 ft | 313 kts | 213° |
| 2026-04-14 16:11 | 50.89034 | -1.41201 | 16510 ft | 316 kts | 213° |
| 2026-04-14 16:11 | 50.87375 | -1.42922 | 16939 ft | 318 kts | 213° |
| 2026-04-14 16:11 | 50.85405 | -1.44955 | 17416 ft | 321 kts | 213° |
| 2026-04-14 16:12 | 50.83560 | -1.46856 | 17861 ft | 323 kts | 213° |
| 2026-04-14 16:12 | 50.81839 | -1.48627 | 18255 ft | 325 kts | 213° |